Terminal Aerodrome Forecast
Issued by NWS

Home | Current Version | Previous Version | Text Only | Print | Product List | Glossary On
Versions: 1 2 3 4 5 6 7 8 9 10 11 12 13 14 15 16 17 18 19 20
000
FTUS41 KALY 200500
TAFPSF
TAF
KPSF 200529Z 2006/2106 17005KT P6SM OVC035
      TEMPO 2006/2008 BKN030 OVC035
     FM200800 19008KT P6SM OVC030
     FM201500 20008KT P6SM SCT030 BKN040
     FM210200 18006KT P6SM BKN030=

USA.gov is the U.S. government's official web portal to all federal, state and local government web resources and services.